Time;durP1;ratioP1;P1;durP2;ratioP2;P2;SDS_P1;SDS_P2;PMS_P1;PMS_P2;Temp;Humidity;BMP_temperature;BMP_pressure;BME280_temperature;BME280_humidity;BME280_pressure;Samples;Min_cycle;Max_cycle;Signal;HPM_P1;HPM_P2
2021/06/07 00:01:48;;;;;;;24.00;21.70;;;17.40;82.60;;;;;;5012024;28;20408;-92
2021/06/07 00:04:15;;;;;;;22.20;20.20;;;17.60;96.80;;;;;;5018557;28;20459;-91
2021/06/07 00:06:41;;;;;;;25.83;20.77;;;17.30;98.30;;;;;;5021418;28;20419;-90
2021/06/07 00:09:09;;;;;;;21.43;19.53;;;17.30;82.30;;;;;;5016922;28;20423;-91
2021/06/07 00:11:36;;;;;;;21.23;19.23;;;17.20;82.80;;;;;;5011332;28;20415;-91
2021/06/07 00:14:03;;;;;;;21.50;19.50;;;17.20;84.50;;;;;;5013276;28;20426;-90
2021/06/07 00:16:30;;;;;;;20.37;18.30;;;17.30;83.10;;;;;;5027891;28;20895;-91
2021/06/07 00:18:56;;;;;;;22.57;20.63;;;17.20;82.80;;;;;;5027891;28;20404;-90
2021/06/07 00:21:24;;;;;;;22.50;20.57;;;17.20;82.60;;;;;;5009954;28;20495;-90
2021/06/07 00:23:51;;;;;;;21.77;19.77;;;;;;;;;;5025459;28;20437;-91
2021/06/07 00:26:17;;;;;;;22.43;20.53;;;;;;;;;;5007744;28;20799;-90
2021/06/07 00:28:45;;;;;;;22.87;21.00;;;17.20;82.00;;;;;;5010266;28;20824;-91
2021/06/07 00:31:13;;;;;;;22.67;20.70;;;16.10;85.50;;;;;;5029795;28;20464;-90
2021/06/07 00:33:41;;;;;;;21.83;19.90;;;20.90;91.30;;;;;;5028971;28;20414;-90
2021/06/07 00:36:08;;;;;;;24.20;21.93;;;17.20;82.70;;;;;;5026616;28;20408;-91
2021/06/07 00:38:35;;;;;;;23.23;21.20;;;17.20;83.70;;;;;;5010825;28;20411;-90
2021/06/07 00:41:05;;;;;;;22.27;20.20;;;17.20;83.10;;;;;;5008230;28;20423;-91
2021/06/07 00:43:31;;;;;;;23.10;21.10;;;17.30;99.00;;;;;;5031609;28;20426;-90
2021/06/07 00:45:57;;;;;;;25.40;23.20;;;;;;;;;;5030405;28;20462;-91
2021/06/07 00:48:24;;;;;;;21.30;19.30;;;;;;;;;;5015318;28;20415;-91
2021/06/07 00:50:53;;;;;;;23.20;21.10;;;17.20;83.10;;;;;;5034414;28;20407;-91
2021/06/07 00:53:19;;;;;;;24.27;21.73;;;17.10;82.90;;;;;;5032839;28;20418;-92
2021/06/07 00:55:51;;;;;;;22.03;20.10;;;17.20;82.30;;;;;;5034987;28;20423;-91
2021/06/07 00:58:19;;;;;;;21.97;19.97;;;17.20;99.00;;;;;;5035018;28;20396;-90
2021/06/07 01:00:46;;;;;;;22.57;20.67;;;17.20;83.00;;;;;;5030593;28;20412;-91
2021/06/07 01:03:13;;;;;;;21.50;19.40;;;21.00;90.20;;;;;;5017714;28;20412;-90
2021/06/07 01:05:39;;;;;;;21.07;19.27;;;16.80;86.20;;;;;;5032203;28;20514;-90
2021/06/07 01:08:05;;;;;;;21.07;18.90;;;17.90;89.40;;;;;;5031896;28;20748;-91
2021/06/07 01:10:31;;;;;;;22.57;20.37;;;;;;;;;;5017171;28;20439;-91
2021/06/07 01:12:59;;;;;;;20.67;19.10;;;;;;;;;;5032727;28;20404;-90
2021/06/07 01:15:26;;;;;;;21.13;19.33;;;17.10;84.70;;;;;;5033968;28;20440;-91
2021/06/07 01:17:52;;;;;;;20.90;19.17;;;;;;;;;;5035141;28;20453;-88
2021/06/07 01:20:19;;;;;;;22.57;20.23;;;17.00;82.70;;;;;;5034068;28;20431;-91
2021/06/07 01:22:49;;;;;;;21.10;19.00;;;20.10;90.80;;;;;;5033048;28;20438;-90
2021/06/07 01:25:28;;;;;;;21.03;19.37;;;18.70;90.00;;;;;;5032996;28;20455;-90
2021/06/07 01:27:55;;;;;;;21.50;19.70;;;17.20;83.60;;;;;;5030469;28;20455;-91
2021/06/07 01:30:27;;;;;;;20.63;19.00;;;21.70;90.00;;;;;;5029446;28;20407;-90
2021/06/07 01:32:54;;;;;;;19.97;18.37;;;17.10;82.50;;;;;;5032847;28;20415;-90
2021/06/07 01:35:21;;;;;;;20.93;19.23;;;19.10;89.40;;;;;;5033758;28;20498;-91
2021/06/07 01:37:52;;;;;;;22.83;20.97;;;17.10;83.10;;;;;;5016290;28;21005;-90
2021/06/07 01:40:24;;;;;;;21.43;19.53;;;19.80;87.60;;;;;;5015257;28;20511;-90
2021/06/07 01:42:50;;;;;;;20.27;18.47;;;17.00;84.70;;;;;;5013328;28;20408;-91
2021/06/07 01:45:19;;;;;;;23.50;21.27;;;17.00;84.30;;;;;;5032226;28;20470;-90
2021/06/07 01:47:45;;;;;;;22.10;19.93;;;;;;;;;;5031039;28;20404;-90
2021/06/07 01:50:11;;;;;;;23.13;20.90;;;17.00;83.00;;;;;;5015968;28;20419;-91
2021/06/07 01:52:47;;;;;;;21.10;19.20;;;16.90;87.40;;;;;;5019654;28;20446;-90
2021/06/07 01:55:20;;;;;;;23.20;20.90;;;16.60;88.80;;;;;;5035831;28;20814;-91
2021/06/07 01:57:47;;;;;;;23.23;21.13;;;16.90;83.90;;;;;;5037632;28;20431;-91
2021/06/07 02:00:26;;;;;;;22.30;20.30;;;16.80;99.60;;;;;;5019078;28;20431;-91
2021/06/07 02:02:52;;;;;;;23.37;21.07;;;16.70;98.80;;;;;;5034353;28;20419;-90
2021/06/07 02:05:32;;;;;;;23.23;21.07;;;19.00;88.10;;;;;;5013004;28;20474;-90
2021/06/07 02:08:01;;;;;;;23.70;21.50;;;16.80;84.80;;;;;;5031041;28;20171;-91
2021/06/07 02:10:34;;;;;;;23.40;21.20;;;16.70;85.00;;;;;;5031145;28;20403;-91
2021/06/07 02:13:04;;;;;;;25.67;23.20;;;16.70;85.00;;;;;;5012595;28;20415;-91
2021/06/07 02:15:30;;;;;;;23.83;21.70;;;17.20;92.60;;;;;;5035030;28;20396;-90
2021/06/07 02:18:00;;;;;;;23.83;21.73;;;16.70;85.00;;;;;;5034638;28;20410;-91
2021/06/07 02:20:27;;;;;;;24.13;21.70;;;16.80;85.10;;;;;;5032933;28;20435;-90
2021/06/07 02:22:53;;;;;;;23.53;21.63;;;16.80;90.60;;;;;;5032794;28;20412;-90
2021/06/07 02:25:21;;;;;;;23.90;21.90;;;16.70;86.10;;;;;;5014975;28;20543;-90
2021/06/07 02:27:48;;;;;;;24.20;21.90;;;16.60;99.90;;;;;;5017464;28;20466;-91
2021/06/07 02:30:23;;;;;;;23.50;21.17;;;16.70;85.50;;;;;;5037627;28;20403;-91
2021/06/07 02:32:50;;;;;;;22.57;20.43;;;16.80;85.70;;;;;;5023057;28;20454;-91
2021/06/07 02:35:18;;;;;;;25.70;23.07;;;16.70;85.60;;;;;;5016920;28;20424;-92
2021/06/07 02:37:45;;;;;;;24.13;21.90;;;16.60;85.40;;;;;;5012214;28;20434;-91
2021/06/07 02:40:12;;;;;;;23.37;21.27;;;16.70;84.90;;;;;;5010315;28;20427;-91
2021/06/07 02:42:39;;;;;;;22.77;20.80;;;16.80;86.80;;;;;;5030081;28;20418;-92
2021/06/07 02:45:07;;;;;;;24.90;22.43;;;16.70;84.90;;;;;;5012505;28;20469;-91
2021/06/07 02:47:33;;;;;;;24.47;22.23;;;;;;;;;;5027988;28;20416;-91
2021/06/07 02:50:00;;;;;;;24.40;22.13;;;;;;;;;;5026731;28;20407;-91
2021/06/07 02:52:26;;;;;;;24.13;21.77;;;;;;;;;;5025780;28;20412;-91
2021/06/07 02:54:52;;;;;;;26.00;23.33;;;;;;;;;;5026196;28;20887;-91
2021/06/07 02:57:18;;;;;;;26.13;23.70;;;16.60;85.30;;;;;;5026271;28;20434;-89
2021/06/07 02:59:44;;;;;;;24.93;22.40;;;;;;;;;;5028389;28;20434;-91
2021/06/07 03:02:10;;;;;;;28.00;25.00;;;;;;;;;;5008802;28;20415;-90
2021/06/07 03:04:36;;;;;;;26.90;23.67;;;;;;;;;;5008943;28;20474;-91
2021/06/07 03:07:02;;;;;;;29.13;23.20;;;;;;;;;;5008857;28;20408;-92
2021/06/07 03:09:29;;;;;;;25.70;23.10;;;;;;;;;;5009603;28;20915;-91
2021/06/07 03:11:55;;;;;;;27.43;24.57;;;16.60;85.10;;;;;;5025589;28;20921;-90
2021/06/07 03:14:20;;;;;;;25.10;22.40;;;15.40;87.80;;;;;;5028626;28;20416;-90
2021/06/07 03:16:50;;;;;;;26.70;23.93;;;;;;;;;;5025454;28;20267;-91
2021/06/07 03:19:15;;;;;;;26.30;23.80;;;16.80;84.20;;;;;;5026038;28;20179;-91
2021/06/07 03:21:41;;;;;;;28.30;25.40;;;;;;;;;;5008294;28;20515;-90
2021/06/07 03:24:07;;;;;;;29.33;25.20;;;;;;;;;;5028845;28;20196;-90
2021/06/07 03:26:33;;;;;;;28.50;25.40;;;;;;;;;;5008349;28;20427;-91
2021/06/07 03:28:59;;;;;;;28.47;24.73;;;16.70;84.90;;;;;;5009084;28;20460;-90
2021/06/07 03:31:25;;;;;;;29.27;26.17;;;16.70;84.60;;;;;;5010559;28;20427;-90
2021/06/07 03:33:51;;;;;;;25.87;23.03;;;;;;;;;;5007970;28;20230;-88
2021/06/07 03:36:17;;;;;;;27.97;25.23;;;;;;;;;;5008150;28;20169;-90
2021/06/07 03:38:43;;;;;;;30.17;26.20;;;;;;;;;;5029474;28;20404;-90
2021/06/07 03:41:09;;;;;;;27.87;25.07;;;;;;;;;;5038569;28;20407;-88
2021/06/07 03:43:37;;;;;;;27.40;24.70;;;16.70;85.90;;;;;;5037047;28;20426;-90
2021/06/07 03:46:03;;;;;;;27.80;24.80;;;16.70;85.90;;;;;;5026369;28;20486;-91
2021/06/07 03:48:30;;;;;;;28.17;25.43;;;;;;;;;;5009955;28;20414;-91
2021/06/07 03:50:56;;;;;;;31.90;28.60;;;16.80;85.50;;;;;;5025226;28;20881;-90
2021/06/07 03:53:22;;;;;;;27.53;24.80;;;19.40;91.50;;;;;;5027712;28;20414;-89
2021/06/07 03:55:48;;;;;;;28.30;25.43;;;;;;;;;;5027930;28;20400;-89
2021/06/07 03:58:14;;;;;;;30.47;26.90;;;;;;;;;;5010505;28;20169;-90
2021/06/07 04:00:41;;;;;;;34.00;26.50;;;;;;;;;;5011238;28;20479;-90
2021/06/07 04:03:09;;;;;;;29.97;24.33;;;16.80;85.30;;;;;;5028555;28;20486;-91
2021/06/07 04:05:36;;;;;;;26.70;23.90;;;17.10;84.90;;;;;;5010682;28;20482;-91
2021/06/07 04:08:07;;;;;;;26.80;24.10;;;16.90;85.70;;;;;;5026547;28;20430;-91
2021/06/07 04:10:35;;;;;;;30.00;25.23;;;17.40;88.20;;;;;;5030814;28;20926;-90
2021/06/07 04:13:01;;;;;;;29.53;26.20;;;;;;;;;;5013362;28;20420;-90
2021/06/07 04:15:29;;;;;;;28.07;24.20;;;17.00;83.00;;;;;;5017642;28;20428;-91
2021/06/07 04:17:56;;;;;;;33.17;24.30;;;17.00;85.00;;;;;;5014834;28;20829;-90
2021/06/07 04:20:27;;;;;;;32.83;25.60;;;16.90;83.40;;;;;;5014276;28;20412;-89
2021/06/07 04:22:53;;;;;;;27.60;24.80;;;16.90;83.20;;;;;;5032538;28;20407;-92
2021/06/07 04:25:21;;;;;;;29.70;23.93;;;15.80;90.10;;;;;;5031949;28;20550;-92
2021/06/07 04:27:52;;;;;;;27.20;23.80;;;16.90;97.80;;;;;;5009579;28;20472;-89
2021/06/07 04:30:19;;;;;;;26.03;23.43;;;17.00;98.30;;;;;;5011649;28;20420;-90
2021/06/07 04:32:52;;;;;;;27.63;24.63;;;17.00;97.50;;;;;;5008695;28;20779;-91
2021/06/07 04:35:18;;;;;;;24.50;21.87;;;;;;;;;;5008996;28;20864;-88
2021/06/07 04:37:53;;;;;;;26.87;23.33;;;17.00;80.70;;;;;;5009892;28;20458;-91
2021/06/07 04:40:31;;;;;;;25.40;22.90;;;17.00;83.70;;;;;;4992580;28;20915;-90
2021/06/07 04:43:01;;;;;;;30.23;21.83;;;17.00;80.00;;;;;;5008538;28;20424;-89
2021/06/07 04:45:28;;;;;;;25.60;23.00;;;17.00;79.30;;;;;;4993733;28;20460;-90
2021/06/07 04:47:54;;;;;;;24.57;22.13;;;17.00;79.30;;;;;;5011113;28;20471;-90
2021/06/07 04:50:22;;;;;;;27.07;23.03;;;16.90;78.90;;;;;;5012757;28;20502;-88
2021/06/07 04:53:01;;;;;;;24.40;21.90;;;16.80;78.70;;;;;;5014239;28;20409;-90
2021/06/07 04:55:40;;;;;;;24.00;21.43;;;16.80;96.40;;;;;;5012064;28;20493;-90
2021/06/07 04:58:15;;;;;;;25.17;22.60;;;17.30;79.20;;;;;;5010998;28;20423;-89
2021/06/07 05:00:45;;;;;;;25.20;21.17;;;16.90;79.30;;;;;;5012539;28;20480;-90
2021/06/07 05:03:17;;;;;;;27.83;22.63;;;16.90;79.40;;;;;;4996735;28;20455;-91
2021/06/07 05:05:43;;;;;;;25.10;22.60;;;;;;;;;;5008192;28;20491;-90
2021/06/07 05:08:09;;;;;;;23.40;20.90;;;;;;;;;;5009159;28;20428;-88
2021/06/07 05:10:36;;;;;;;23.40;21.00;;;;;;;;;;5007675;28;20788;-89
2021/06/07 05:13:02;;;;;;;29.47;21.17;;;;;;;;;;5010235;28;20497;-90
2021/06/07 05:15:28;;;;;;;26.30;22.40;;;;;;;;;;5013299;28;20405;-91
2021/06/07 05:17:54;;;;;;;24.87;21.37;;;17.00;77.40;;;;;;5008651;28;20587;-89
2021/06/07 05:20:24;;;;;;;30.23;22.50;;;17.10;78.00;;;;;;5008537;28;20420;-90
2021/06/07 05:22:52;;;;;;;22.67;20.20;;;17.60;78.00;;;;;;5009753;28;20181;-90
2021/06/07 05:25:23;;;;;;;25.00;22.20;;;17.20;76.60;;;;;;5010506;28;20471;-89
2021/06/07 05:27:50;;;;;;;27.87;21.30;;;17.20;77.40;;;;;;5016585;28;20451;-89
2021/06/07 05:30:20;;;;;;;24.27;21.57;;;17.20;77.10;;;;;;5021593;28;20431;-88
2021/06/07 05:32:46;;;;;;;25.73;21.70;;;;;;;;;;5022548;28;20408;-90
2021/06/07 05:35:14;;;;;;;23.20;20.80;;;17.40;76.20;;;;;;5020099;28;20412;-89
2021/06/07 05:37:40;;;;;;;23.60;19.60;;;;;;;;;;5015705;28;20483;-91
2021/06/07 05:40:08;;;;;;;24.37;21.77;;;17.20;75.20;;;;;;5027315;28;20910;-90
2021/06/07 05:42:35;;;;;;;25.03;20.90;;;17.60;75.50;;;;;;5008116;28;20411;-90
2021/06/07 05:45:01;;;;;;;22.47;20.27;;;17.60;75.60;;;;;;5008245;28;20993;-89
2021/06/07 05:47:27;;;;;;;23.47;20.17;;;17.40;77.40;;;;;;5005788;28;20419;-89
2021/06/07 05:49:52;;;;;;;23.57;21.27;;;17.40;95.10;;;;;;5026888;28;20645;-90
2021/06/07 05:52:18;;;;;;;24.53;21.97;;;;;;;;;;5025100;28;20172;-87
2021/06/07 05:54:44;;;;;;;23.50;21.10;;;;;;;;;;5031077;28;20180;-90
2021/06/07 05:57:18;;;;;;;25.10;22.43;;;17.90;93.80;;;;;;5015693;28;20489;-89
2021/06/07 05:59:44;;;;;;;24.17;20.80;;;;;;;;;;5014082;28;20423;-86
2021/06/07 06:04:45;;;;;;;25.47;21.07;;;18.00;73.30;;;;;;4990086;28;20497;-91
2021/06/07 06:07:11;;;;;;;23.57;21.07;;;;;;;;;;4993369;28;20410;-91
2021/06/07 06:09:37;;;;;;;23.07;20.70;;;;;;;;;;4976693;28;20483;-92
2021/06/07 06:12:05;;;;;;;23.83;20.60;;;18.00;71.40;;;;;;4990147;28;20504;-92
2021/06/07 06:14:31;;;;;;;23.40;21.13;;;;;;;;;;4974890;28;20429;-89
2021/06/07 06:16:57;;;;;;;26.93;20.63;;;18.00;71.40;;;;;;4972117;28;20413;-92
2021/06/07 06:19:23;;;;;;;23.03;20.80;;;;;;;;;;4970469;28;20421;-92
2021/06/07 06:21:53;;;;;;;23.63;21.13;;;18.40;71.40;;;;;;4969018;28;20836;-91
2021/06/07 06:24:20;;;;;;;34.87;26.57;;;18.70;71.40;;;;;;4970256;28;20532;-92
2021/06/07 06:26:47;;;;;;;23.93;21.57;;;20.70;82.60;;;;;;4971186;28;20524;-90
2021/06/07 06:29:15;;;;;;;23.30;20.60;;;18.70;68.30;;;;;;4977216;28;20466;-90
2021/06/07 06:31:41;;;;;;;33.83;22.47;;;;;;;;;;4977132;28;20161;-91
2021/06/07 06:34:17;;;;;;;24.17;21.37;;;18.50;68.30;;;;;;4974715;28;20933;-90
2021/06/07 06:36:43;;;;;;;24.13;21.47;;;;;;;;;;4957192;28;20929;-89
2021/06/07 06:39:09;;;;;;;22.20;20.20;;;;;;;;;;4966378;28;20438;-90
2021/06/07 06:41:36;;;;;;;25.83;19.80;;;18.60;68.00;;;;;;4970616;28;20420;-90
2021/06/07 06:44:03;;;;;;;21.77;19.57;;;19.00;67.40;;;;;;4694945;23;10001396;-87
2021/06/07 06:46:29;;;;;;;21.60;19.43;;;18.90;68.30;;;;;;4969645;28;20195;-88
2021/06/07 06:48:58;;;;;;;21.73;19.70;;;17.50;86.50;;;;;;5161089;23;20495;-88
2021/06/07 06:54:03;;;;;;;20.73;18.83;;;;;;;;;;5032237;23;20482;-91
2021/06/07 06:56:50;;;;;;;21.07;18.93;;;19.00;66.20;;;;;;5019442;28;20497;-89
2021/06/07 06:59:20;;;;;;;20.60;18.77;;;19.30;90.90;;;;;;5035293;28;20435;-90
2021/06/07 07:01:46;;;;;;;21.03;19.33;;;19.10;65.80;;;;;;5016298;28;20431;-92
2021/06/07 07:04:12;;;;;;;20.60;18.70;;;;;;;;;;5033025;28;20411;-89
2021/06/07 07:06:38;;;;;;;21.30;19.30;;;;;;;;;;5015110;28;20453;-89
2021/06/07 07:09:05;;;;;;;21.23;18.97;;;19.40;89.60;;;;;;5031489;28;20424;-90
2021/06/07 07:11:31;;;;;;;22.20;20.17;;;;;;;;;;5018683;28;20427;-90
2021/06/07 07:13:57;;;;;;;25.93;21.10;;;;;;;;;;5027135;28;20420;-88
2021/06/07 07:16:24;;;;;;;21.03;19.03;;;;;;;;;;5001140;28;20830;-87
2021/06/07 07:18:49;;;;;;;20.27;18.53;;;;;;;;;;5017856;28;20493;-87
2021/06/07 07:21:15;;;;;;;19.47;17.50;;;20.10;61.80;;;;;;5015097;28;20408;-88
2021/06/07 07:23:41;;;;;;;20.73;18.87;;;21.60;63.90;;;;;;4997411;28;20427;-86
2021/06/07 07:26:06;;;;;;;25.50;22.80;;;19.60;60.30;;;;;;5020427;28;20267;-90
2021/06/07 07:28:32;;;;;;;22.57;18.40;;;19.70;59.80;;;;;;5018307;28;20172;-89
2021/06/07 07:30:58;;;;;;;18.50;16.73;;;20.40;61.00;;;;;;5023926;28;20172;-88
2021/06/07 07:33:24;;;;;;;19.73;18.00;;;21.90;61.60;;;;;;5028819;28;20256;-88
2021/06/07 07:35:50;;;;;;;21.30;19.03;;;22.50;60.50;;;;;;5032903;28;20181;-87
2021/06/07 07:38:18;;;;;;;18.60;16.90;;;20.70;59.20;;;;;;5015175;28;20180;-88
2021/06/07 07:40:46;;;;;;;17.63;16.10;;;20.00;58.50;;;;;;5013384;28;20485;-89
2021/06/07 07:43:20;;;;;;;19.57;17.63;;;21.40;75.80;;;;;;5106941;23;20479;-91
2021/06/07 07:45:46;;;;;;;17.90;16.07;;;;;;;;;;5009631;28;20483;-89
2021/06/07 07:48:13;;;;;;;18.67;17.13;;;20.90;57.90;;;;;;5008309;28;20486;-92
2021/06/07 07:50:44;;;;;;;18.43;17.00;;;21.80;61.20;;;;;;5027924;28;20430;-91
2021/06/07 07:53:09;;;;;;;17.77;16.27;;;25.00;71.00;;;;;;5011566;28;20439;-90
2021/06/07 07:55:35;;;;;;;20.77;18.97;;;;;;;;;;5030032;28;20443;-92
2021/06/07 07:58:06;;;;;;;19.77;17.80;;;21.40;57.60;;;;;;5247290;23;20237;-86
2021/06/07 08:00:33;;;;;;;20.37;18.20;;;21.60;57.80;;;;;;5005120;28;20427;-89
2021/06/07 08:03:03;;;;;;;19.37;17.70;;;24.60;59.00;;;;;;5180321;23;20499;-89
2021/06/07 08:05:29;;;;;;;18.73;16.90;;;;;;;;;;4999563;28;20479;-90
2021/06/07 08:07:55;;;;;;;16.10;14.80;;;;;;;;;;5033441;28;20420;-89
2021/06/07 08:10:21;;;;;;;16.63;15.13;;;23.90;53.00;;;;;;5005915;28;20498;-89
2021/06/07 08:12:47;;;;;;;15.63;14.53;;;24.30;53.80;;;;;;5007612;28;20419;-88
2021/06/07 08:15:13;;;;;;;16.80;15.40;;;26.00;53.00;;;;;;5032549;28;20165;-88
2021/06/07 08:17:39;;;;;;;15.90;14.57;;;24.80;51.50;;;;;;5014085;28;20173;-91
2021/06/07 08:20:11;;;;;;;15.37;14.13;;;24.90;50.90;;;;;;5013317;28;20458;-90
2021/06/07 08:22:41;;;;;;;16.93;15.63;;;25.00;69.00;;;;;;5218472;23;20491;-89
2021/06/07 08:25:07;;;;;;;15.83;14.43;;;25.20;52.30;;;;;;4990688;28;20456;-91
2021/06/07 08:27:34;;;;;;;17.10;15.37;;;26.50;48.00;;;;;;4662825;28;10000023;-88
2021/06/07 08:30:15;;;;;;;17.53;16.13;;;27.20;46.40;;;;;;4993460;28;20157;-90
2021/06/07 08:32:41;;;;;;;16.50;15.23;;;26.20;46.40;;;;;;5012932;28;20409;-91
2021/06/07 08:35:09;;;;;;;15.20;14.07;;;26.00;47.20;;;;;;4991690;28;20417;-90
2021/06/07 08:37:36;;;;;;;15.13;14.03;;;26.30;48.80;;;;;;4994185;28;20415;-90
2021/06/07 08:40:16;;;;;;;15.27;14.13;;;26.50;47.80;;;;;;5002228;28;20421;-89
2021/06/07 08:42:43;;;;;;;16.77;15.63;;;26.80;48.00;;;;;;4960619;28;20478;-88
2021/06/07 08:45:11;;;;;;;16.13;14.80;;;27.50;47.00;;;;;;5095033;23;20969;-88
2021/06/07 08:47:43;;;;;;;14.93;13.93;;;27.80;46.10;;;;;;5003141;28;20907;-89
2021/06/07 08:50:10;;;;;;;13.20;12.20;;;28.90;43.30;;;;;;5021942;28;20416;-90
2021/06/07 08:52:36;;;;;;;13.13;12.40;;;28.20;44.50;;;;;;5004723;28;20432;-88
2021/06/07 08:55:06;;;;;;;13.97;12.97;;;27.20;43.20;;;;;;5004165;28;20454;-86
2021/06/07 08:57:48;;;;;;;14.00;13.00;;;26.30;45.10;;;;;;5029292;28;20416;-87
2021/06/07 09:00:19;;;;;;;15.97;14.53;;;25.50;46.90;;;;;;5010317;28;20482;-89
2021/06/07 09:02:46;;;;;;;15.23;13.83;;;25.40;47.70;;;;;;4962652;23;10001667;-88
2021/06/07 09:05:15;;;;;;;12.93;12.20;;;26.40;49.30;;;;;;5030981;28;20212;-93
2021/06/07 09:08:05;;;;;;;13.33;12.43;;;26.00;47.00;;;;;;5017027;28;20435;-91
2021/06/07 09:10:41;;;;;;;13.20;12.17;;;26.00;46.50;;;;;;5014015;28;20438;-90
2021/06/07 09:13:09;;;;;;;13.47;12.47;;;25.30;47.80;;;;;;5028410;28;20486;-90
2021/06/07 09:15:49;;;;;;;16.00;14.83;;;24.60;48.50;;;;;;4990105;28;20419;-90
2021/06/07 09:18:46;;;;;;;13.53;12.33;;;24.10;49.90;;;;;;5010260;28;20431;-90
2021/06/07 09:21:19;;;;;;;11.97;10.90;;;22.90;49.10;;;;;;5028124;28;20450;-91
2021/06/07 09:23:51;;;;;;;12.70;11.70;;;24.80;53.00;;;;;;5026903;28;20458;-89
2021/06/07 09:26:40;;;;;;;12.20;10.87;;;23.00;52.20;;;;;;5031021;28;20473;-90
2021/06/07 09:29:30;;;;;;;19.60;13.20;;;23.00;52.10;;;;;;5008571;28;20895;-87
2021/06/07 09:31:59;;;;;;;15.47;14.37;;;21.90;56.10;;;;;;4995496;28;20430;-88
2021/06/07 09:34:31;;;;;;;15.07;13.83;;;21.80;54.80;;;;;;5008508;28;20415;-92
2021/06/07 09:37:09;;;;;;;16.17;14.70;;;23.00;55.50;;;;;;5010008;28;20484;-89
2021/06/07 09:39:36;;;;;;;16.00;14.40;;;21.40;55.40;;;;;;4994222;28;20441;-89
2021/06/07 09:42:01;;;;;;;16.00;14.60;;;;;;;;;;5028746;28;20414;-87
2021/06/07 09:44:48;;;;;;;16.10;14.70;;;21.30;55.20;;;;;;5015122;28;20455;-89
2021/06/07 09:47:24;;;;;;;15.60;14.10;;;20.30;55.30;;;;;;5021944;28;20399;-90
2021/06/07 09:49:58;;;;;;;15.27;14.03;;;21.00;56.60;;;;;;5005253;28;20435;-89
2021/06/07 09:52:30;;;;;;;15.30;13.90;;;20.80;56.90;;;;;;5005138;28;20514;-90
2021/06/07 09:55:14;;;;;;;16.73;15.33;;;21.50;58.90;;;;;;5003044;28;20419;-89
2021/06/07 09:57:51;;;;;;;16.47;15.17;;;20.90;57.60;;;;;;5021076;28;20427;-90
2021/06/07 10:00:31;;;;;;;17.70;16.23;;;22.70;60.20;;;;;;5003685;28;20470;-91
2021/06/07 10:02:56;;;;;;;17.87;16.47;;;20.00;59.00;;;;;;5021598;28;20521;-89
2021/06/07 10:05:33;;;;;;;21.00;19.27;;;20.60;59.10;;;;;;4657829;28;9999661;-88
2021/06/07 10:07:59;;;;;;;19.50;18.00;;;22.00;61.40;;;;;;5004838;28;20172;-91
2021/06/07 10:10:25;;;;;;;22.20;20.20;;;;;;;;;;4987588;28;20477;-91
2021/06/07 10:12:59;;;;;;;22.03;20.23;;;;;;;;;;5001930;28;20483;-90
2021/06/07 10:15:43;;;;;;;20.43;18.93;;;20.50;57.60;;;;;;5002856;28;20406;-89
2021/06/07 10:18:23;;;;;;;20.03;18.33;;;19.00;57.00;;;;;;5022575;28;20420;-89
2021/06/07 10:20:53;;;;;;;19.87;18.37;;;20.60;57.70;;;;;;5005400;28;20421;-88
2021/06/07 10:23:30;;;;;;;22.87;18.30;;;22.90;59.70;;;;;;5005491;28;20526;-89
2021/06/07 10:26:24;;;;;;;20.03;18.43;;;21.80;60.00;;;;;;5004634;28;20467;-90
2021/06/07 10:28:55;;;;;;;19.97;18.50;;;20.60;57.60;;;;;;5021841;28;20404;-88
2021/06/07 10:31:22;;;;;;;19.10;17.60;;;20.70;57.40;;;;;;5003600;28;20434;-91
2021/06/07 10:34:02;;;;;;;19.67;18.10;;;20.70;57.50;;;;;;5003733;28;20412;-90
2021/06/07 10:36:32;;;;;;;20.93;18.90;;;20.70;57.70;;;;;;5003123;28;20848;-89
2021/06/07 10:39:20;;;;;;;18.00;16.63;;;20.60;57.60;;;;;;5021914;28;20417;-90
2021/06/07 10:41:57;;;;;;;19.00;17.60;;;20.80;57.40;;;;;;5011600;28;20430;-90
2021/06/07 10:44:44;;;;;;;18.27;16.67;;;21.60;58.10;;;;;;5013596;28;20459;-88
2021/06/07 10:47:15;;;;;;;19.27;17.50;;;20.90;57.30;;;;;;5029918;28;20507;-88
2021/06/07 10:49:48;;;;;;;16.90;15.70;;;20.70;57.30;;;;;;5029478;28;20448;-88
2021/06/07 10:52:17;;;;;;;15.80;14.70;;;20.80;57.30;;;;;;5032158;28;20510;-89
2021/06/07 10:55:05;;;;;;;16.23;14.70;;;22.80;59.30;;;;;;5014083;28;20431;-91
2021/06/07 10:57:53;;;;;;;15.87;14.60;;;20.90;56.90;;;;;;5006811;28;20420;-88
2021/06/07 11:00:36;;;;;;;15.13;14.10;;;21.00;56.80;;;;;;5011841;28;20420;-90
2021/06/07 11:03:14;;;;;;;16.40;15.10;;;20.90;56.60;;;;;;4987613;28;20468;-90
2021/06/07 11:05:41;;;;;;;14.83;13.53;;;;;;;;;;5004034;28;20487;-87
2021/06/07 11:08:29;;;;;;;14.93;13.70;;;22.30;57.40;;;;;;4989231;28;20445;-88
2021/06/07 11:11:21;;;;;;;12.63;11.70;;;22.20;57.80;;;;;;5014411;28;20431;-88
2021/06/07 11:14:01;;;;;;;11.70;10.90;;;20.90;56.50;;;;;;4996116;28;20423;-89
2021/06/07 11:16:32;;;;;;;13.00;12.20;;;20.80;77.60;;;;;;5002738;28;20942;-87
2021/06/07 11:19:12;;;;;;;13.77;12.57;;;21.00;57.40;;;;;;5001377;28;20419;-88
2021/06/07 11:21:46;;;;;;;12.57;11.67;;;22.70;58.40;;;;;;5000872;28;20769;-89
2021/06/07 11:24:32;;;;;;;14.37;13.20;;;20.80;56.50;;;;;;5019992;28;20450;-90
2021/06/07 11:27:00;;;;;;;13.17;12.03;;;23.00;58.90;;;;;;5003774;28;20430;-89
2021/06/07 11:29:29;;;;;;;12.60;11.73;;;20.60;56.60;;;;;;5020044;28;20407;-90
2021/06/07 11:32:14;;;;;;;12.57;11.57;;;20.70;56.70;;;;;;5018413;28;20419;-89
2021/06/07 11:34:50;;;;;;;10.07;9.47;;;20.60;56.40;;;;;;5018346;28;20417;-88
2021/06/07 11:37:16;;;;;;;10.87;10.17;;;;;;;;;;5008036;28;20427;-86
2021/06/07 11:39:49;;;;;;;11.13;10.33;;;20.70;55.80;;;;;;5025640;28;20416;-89
2021/06/07 11:42:19;;;;;;;11.20;10.50;;;23.80;58.10;;;;;;5007589;28;20427;-90
2021/06/07 11:45:04;;;;;;;11.77;10.67;;;21.50;56.60;;;;;;5007945;28;20451;-89
2021/06/07 11:47:40;;;;;;;11.97;11.07;;;20.90;56.10;;;;;;5006986;28;20400;-91
2021/06/07 11:50:15;;;;;;;12.40;11.33;;;20.90;55.90;;;;;;5009917;28;20410;-88
2021/06/07 11:52:49;;;;;;;10.87;10.13;;;21.00;55.30;;;;;;5007378;28;20499;-90
2021/06/07 11:55:20;;;;;;;10.23;9.60;;;21.00;55.10;;;;;;5026332;28;20428;-90
2021/06/07 11:58:04;;;;;;;10.83;10.23;;;20.80;55.40;;;;;;5007368;28;20428;-90
2021/06/07 12:00:33;;;;;;;10.90;10.30;;;21.00;55.90;;;;;;5022486;28;20521;-89
2021/06/07 12:03:05;;;;;;;10.37;9.57;;;21.10;56.20;;;;;;5031380;28;20538;-90
2021/06/07 12:05:32;;;;;;;8.97;8.50;;;21.20;56.50;;;;;;5033130;28;20467;-88
2021/06/07 12:08:13;;;;;;;9.60;9.07;;;21.40;55.10;;;;;;5015506;28;20435;-89
2021/06/07 12:10:52;;;;;;;;;;;;;;;;;;;;;
2021/06/07 12:13:49;;;;;;;11.33;10.50;;;21.10;77.80;;;;;;4977964;28;20182;-88
2021/06/07 12:16:16;;;;;;;10.33;9.33;;;;;;;;;;4959377;28;20738;-91
2021/06/07 12:18:45;;;;;;;15.17;9.97;;;21.20;55.00;;;;;;4982779;28;20867;-90
2021/06/07 12:21:18;;;;;;;12.30;10.90;;;21.20;54.60;;;;;;4966044;28;20467;-91
2021/06/07 12:23:53;;;;;;;10.73;9.63;;;21.00;54.70;;;;;;4984789;28;20409;-92
2021/06/07 12:29:33;;;;;;;10.60;9.90;;;21.70;55.10;;;;;;4983291;28;20436;-90
2021/06/07 12:32:06;;;;;;;10.20;9.50;;;21.70;54.20;;;;;;4983228;28;20417;-87
2021/06/07 12:34:36;;;;;;;10.63;9.60;;;23.20;55.30;;;;;;4973024;28;20421;-88
2021/06/07 12:37:02;;;;;;;11.07;10.37;;;;;;;;;;4993711;28;20542;-87
2021/06/07 12:39:28;;;;;;;10.97;9.97;;;22.00;54.20;;;;;;4992503;28;20409;-87
2021/06/07 12:41:54;;;;;;;11.30;10.30;;;25.00;59.30;;;;;;4971598;28;20933;-90
2021/06/07 12:44:27;;;;;;;12.10;11.27;;;25.70;58.80;;;;;;4976006;28;20508;-90
2021/06/07 12:46:55;;;;;;;11.47;10.50;;;23.90;56.50;;;;;;4976668;28;20185;-89
2021/06/07 12:49:39;;;;;;;11.30;10.40;;;25.60;57.50;;;;;;4976151;28;20413;-91
2021/06/07 12:52:08;;;;;;;12.10;11.00;;;23.00;57.50;;;;;;4977852;28;20448;-89
2021/06/07 12:55:08;;;;;;;13.40;12.10;;;22.00;74.90;;;;;;5039210;23;20487;-91
2021/06/07 12:57:34;;;;;;;11.67;10.87;;;;;;;;;;5012992;28;20427;-91
2021/06/07 13:00:24;;;;;;;12.90;12.10;;;22.10;53.80;;;;;;5014069;28;20419;-89
2021/06/07 13:02:52;;;;;;;12.60;11.70;;;23.90;55.40;;;;;;5014576;28;20443;-90
2021/06/07 13:05:26;;;;;;;12.47;11.27;;;22.60;73.40;;;;;;5016340;28;20555;-90
2021/06/07 13:08:20;;;;;;;10.50;9.50;;;26.30;57.10;;;;;;5012053;28;20438;-91
2021/06/07 13:10:56;;;;;;;9.67;8.53;;;22.60;51.00;;;;;;5010031;28;20752;-91
2021/06/07 13:13:23;;;;;;;15.10;10.23;;;22.70;51.80;;;;;;5027720;28;20419;-91
2021/06/07 13:16:04;;;;;;;8.80;8.30;;;25.00;53.60;;;;;;5012748;28;20411;-89